Sanctuary — WDF6190 — position and weather

sailwx.info

Track history (hours):
 
Tides and Currents Weather Stations Pressure Air Temp Water Temp Dewpoint Dewpoint Depression Visibility Wind Speed Wind Dir Waves Ship Positions

Sanctuary

Owner: Dutton, Stephen G, LEWISTON, CA. More information available from US FCC via Universal Licensing System and Coast Guard Vessel Documentation Center.

Last reported at 2016-Aug-29 21:04 UTC. Time now 2016-Aug-30 13:09 UTC.
Position N 48°33' W 123°10'.

Length 15 m.

Type: Pleasure craft. MMSI: 367470740.

Date/timePositionNaut miles runAvg speedWind from/ knotsBaromVisibWave heightAir tempDewpointWater temp
2016-Aug-29 21:04N 48°33' W 123°10'4 0.5
2016-Aug-29 14:19N 48°37' W 123°09'0 0.0
2016-Aug-29 07:22N 48°37' W 123°09'0 0.0
2016-Aug-29 06:31N 48°37' W 123°09'0 0.0
2016-Aug-29 05:31N 48°37' W 123°09'0 0.0
2016-Aug-29 02:24N 48°37' W 123°09'13 3.3
2016-Aug-28 22:22N 48°45' W 122°53'1 0.3
2016-Aug-28 18:26N 48°46' W 122°54'0 0.0
2016-Aug-28 14:21N 48°46' W 122°54'0 0.0
2016-Aug-28 13:22N 48°46' W 122°54'0 0.0
2016-Aug-28 12:28N 48°46' W 122°54'0 0.0
2016-Aug-28 10:31N 48°46' W 122°54'0 0.0
2016-Aug-28 07:16N 48°46' W 122°54'1 0.1
2016-Aug-27 19:16N 48°46' W 122°54'7 9.1
2016-Aug-27 18:32N 48°46' W 122°44'8 7.7
2016-Aug-27 17:33N 48°41' W 122°35'5 4.1
2016-Aug-27 16:20N 48°45' W 122°30'0 0.0
2016-Aug-26 19:06N 48°45' W 122°30'0 0.0
2016-Aug-26 18:03N 48°45' W 122°30'0 0.4
2016-Aug-26 17:18N 48°45' W 122°31'14 0.9
2016-Aug-26 01:32N 48°32' W 122°34'2 2.0
2016-Aug-26 00:30N 48°31' W 122°37'0 0.0
2016-Aug-25 23:30N 48°31' W 122°37'0 0.0
2016-Aug-25 22:30N 48°31' W 122°37'0 0.0
2016-Aug-25 21:30N 48°31' W 122°37'0 0.0
2016-Aug-25 20:30N 48°31' W 122°37'4 3.4
2016-Aug-25 19:21N 48°32' W 122°42'6 7.0
2016-Aug-25 18:33N 48°33' W 122°51'6 1.0
2016-Aug-25 12:20N 48°39' W 122°52'0 0.0
2016-Aug-25 08:20N 48°39' W 122°52'0 0.0
2016-Aug-24 10:29N 48°39' W 122°52'0 0.0
2016-Aug-24 07:05N 48°39' W 122°52'0 0.0
2016-Aug-24 06:11N 48°39' W 122°52'0 0.0
2016-Aug-24 04:11N 48°39' W 122°52'0 0.0
2016-Aug-23 23:20N 48°39' W 122°52'0 0.0
2016-Aug-23 22:11N 48°39' W 122°52'3 1.3
2016-Aug-23 19:30N 48°35' W 122°52'7 7.2
2016-Aug-23 18:30N 48°35' W 123°02'5 3.7
2016-Aug-23 17:12N 48°37' W 123°09'0 0.0
2016-Aug-23 06:20N 48°37' W 123°09'0 0.0
2016-Aug-23 00:13N 48°37' W 123°09'0 0.0
2016-Aug-22 23:12N 48°37' W 123°09'0 0.0
2016-Aug-22 14:21N 48°37' W 123°09'14 0.5
2016-Aug-21 12:25N 48°46' W 122°54'0 0.0
2016-Aug-21 11:20N 48°46' W 122°54'0 0.0
2016-Aug-21 09:13N 48°46' W 122°54'0 0.0
2016-Aug-21 08:26N 48°46' W 122°54'0 0.0
2016-Aug-21 07:04N 48°46' W 122°54'0 0.0
2016-Aug-21 06:31N 48°46' W 122°54'0 0.0
2016-Aug-21 04:25N 48°46' W 122°54'10 2.4
2016-Aug-21 00:25N 48°43' W 122°40'6 1.3
2016-Aug-20 19:33N 48°45' W 122°31'0 0.1
2016-Aug-20 14:14N 48°45' W 122°30'  
Track history (hours):
 
Tides and Currents Weather Stations Pressure Air Temp Water Temp Dewpoint Dewpoint Depression Visibility Wind Speed Wind Dir Waves Ship Positions

Sanctuary

Owner: Dutton, Stephen G, LEWISTON, CA. More information available from US FCC via Universal Licensing System and Coast Guard Vessel Documentation Center.

Last reported at 2016-Aug-29 21:04 UTC. Time now 2016-Aug-30 13:09 UTC.
Position N 48°33' W 123°10'.

Length 15 m.

Type: Pleasure craft. MMSI: 367470740.

Date/timePositionNaut miles runAvg speedWind from/ knotsBaromVisibWave heightAir tempDewpointWater temp
2016-Aug-29 21:04N 48°33' W 123°10'4 0.5
2016-Aug-29 14:19N 48°37' W 123°09'0 0.0
2016-Aug-29 07:22N 48°37' W 123°09'0 0.0
2016-Aug-29 06:31N 48°37' W 123°09'0 0.0
2016-Aug-29 05:31N 48°37' W 123°09'0 0.0
2016-Aug-29 02:24N 48°37' W 123°09'13 3.3
2016-Aug-28 22:22N 48°45' W 122°53'1 0.3
2016-Aug-28 18:26N 48°46' W 122°54'0 0.0
2016-Aug-28 14:21N 48°46' W 122°54'0 0.0
2016-Aug-28 13:22N 48°46' W 122°54'0 0.0
2016-Aug-28 12:28N 48°46' W 122°54'0 0.0
2016-Aug-28 10:31N 48°46' W 122°54'0 0.0
2016-Aug-28 07:16N 48°46' W 122°54'1 0.1
2016-Aug-27 19:16N 48°46' W 122°54'7 9.1
2016-Aug-27 18:32N 48°46' W 122°44'8 7.7
2016-Aug-27 17:33N 48°41' W 122°35'5 4.1
2016-Aug-27 16:20N 48°45' W 122°30'0 0.0
2016-Aug-26 19:06N 48°45' W 122°30'0 0.0
2016-Aug-26 18:03N 48°45' W 122°30'0 0.4
2016-Aug-26 17:18N 48°45' W 122°31'14 0.9
2016-Aug-26 01:32N 48°32' W 122°34'2 2.0
2016-Aug-26 00:30N 48°31' W 122°37'0 0.0
2016-Aug-25 23:30N 48°31' W 122°37'0 0.0
2016-Aug-25 22:30N 48°31' W 122°37'0 0.0
2016-Aug-25 21:30N 48°31' W 122°37'0 0.0
2016-Aug-25 20:30N 48°31' W 122°37'4 3.4
2016-Aug-25 19:21N 48°32' W 122°42'6 7.0
2016-Aug-25 18:33N 48°33' W 122°51'6 1.0
2016-Aug-25 12:20N 48°39' W 122°52'0 0.0
2016-Aug-25 08:20N 48°39' W 122°52'0 0.0
2016-Aug-24 10:29N 48°39' W 122°52'0 0.0
2016-Aug-24 07:05N 48°39' W 122°52'0 0.0
2016-Aug-24 06:11N 48°39' W 122°52'0 0.0
2016-Aug-24 04:11N 48°39' W 122°52'0 0.0
2016-Aug-23 23:20N 48°39' W 122°52'0 0.0
2016-Aug-23 22:11N 48°39' W 122°52'3 1.3
2016-Aug-23 19:30N 48°35' W 122°52'7 7.2
2016-Aug-23 18:30N 48°35' W 123°02'5 3.7
2016-Aug-23 17:12N 48°37' W 123°09'0 0.0
2016-Aug-23 06:20N 48°37' W 123°09'0 0.0
2016-Aug-23 00:13N 48°37' W 123°09'0 0.0
2016-Aug-22 23:12N 48°37' W 123°09'0 0.0
2016-Aug-22 14:21N 48°37' W 123°09'14 0.5
2016-Aug-21 12:25N 48°46' W 122°54'0 0.0
2016-Aug-21 11:20N 48°46' W 122°54'0 0.0
2016-Aug-21 09:13N 48°46' W 122°54'0 0.0
2016-Aug-21 08:26N 48°46' W 122°54'0 0.0
2016-Aug-21 07:04N 48°46' W 122°54'0 0.0
2016-Aug-21 06:31N 48°46' W 122°54'0 0.0
2016-Aug-21 04:25N 48°46' W 122°54'10 2.4
2016-Aug-21 00:25N 48°43' W 122°40'6 1.3
2016-Aug-20 19:33N 48°45' W 122°31'0 0.1
2016-Aug-20 14:14N 48°45' W 122°30'  

Dump ship's entire track history